sensor_id;sensor_type;location;lat;lon;timestamp;temperature;humidity
21508;DHT22;10915;54.352;9.074;2022-07-29T00:02:07;12.40;99.90
21508;DHT22;10915;54.352;9.074;2022-07-29T00:04:34;12.40;99.90
21508;DHT22;10915;54.352;9.074;2022-07-29T00:07:00;12.40;99.90
21508;DHT22;10915;54.352;9.074;2022-07-29T00:09:26;12.20;99.90
21508;DHT22;10915;54.352;9.074;2022-07-29T00:11:51;12.20;99.90
21508;DHT22;10915;54.352;9.074;2022-07-29T00:14:17;12.10;99.90
21508;DHT22;10915;54.352;9.074;2022-07-29T00:16:43;12.20;99.90
21508;DHT22;10915;54.352;9.074;2022-07-29T00:19:08;12.20;99.90
21508;DHT22;10915;54.352;9.074;2022-07-29T00:21:34;12.20;99.90
21508;DHT22;10915;54.352;9.074;2022-07-29T00:23:59;12.30;99.90
21508;DHT22;10915;54.352;9.074;2022-07-29T00:26:25;12.40;99.90
21508;DHT22;10915;54.352;9.074;2022-07-29T00:28:53;12.40;99.90
21508;DHT22;10915;54.352;9.074;2022-07-29T00:31:18;12.30;99.90
21508;DHT22;10915;54.352;9.074;2022-07-29T00:33:44;12.10;99.90
21508;DHT22;10915;54.352;9.074;2022-07-29T00:36:09;12.00;99.90
21508;DHT22;10915;54.352;9.074;2022-07-29T00:38:35;11.90;99.90
21508;DHT22;10915;54.352;9.074;2022-07-29T00:41:01;11.90;99.90
21508;DHT22;10915;54.352;9.074;2022-07-29T00:43:26;11.90;99.90
21508;DHT22;10915;54.352;9.074;2022-07-29T00:45:52;11.90;99.90
21508;DHT22;10915;54.352;9.074;2022-07-29T00:48:18;11.80;99.90
21508;DHT22;10915;54.352;9.074;2022-07-29T00:50:43;11.90;99.90
21508;DHT22;10915;54.352;9.074;2022-07-29T00:53:11;11.80;99.90
21508;DHT22;10915;54.352;9.074;2022-07-29T00:55:37;11.80;99.90
21508;DHT22;10915;54.352;9.074;2022-07-29T00:58:03;11.70;99.90
21508;DHT22;10915;54.352;9.074;2022-07-29T01:00:30;11.70;99.90
21508;DHT22;10915;54.352;9.074;2022-07-29T01:02:56;11.60;99.90
21508;DHT22;10915;54.352;9.074;2022-07-29T01:05:24;11.60;99.90
21508;DHT22;10915;54.352;9.074;2022-07-29T01:07:52;11.70;99.90
21508;DHT22;10915;54.352;9.074;2022-07-29T01:10:20;11.60;99.90
21508;DHT22;10915;54.352;9.074;2022-07-29T01:12:48;11.50;99.90
21508;DHT22;10915;54.352;9.074;2022-07-29T01:15:14;11.50;99.90
21508;DHT22;10915;54.352;9.074;2022-07-29T01:17:58;11.50;99.90
21508;DHT22;10915;54.352;9.074;2022-07-29T01:26:09;11.50;99.90
21508;DHT22;10915;54.352;9.074;2022-07-29T01:31:58;11.30;99.90
21508;DHT22;10915;54.352;9.074;2022-07-29T01:37:28;11.10;99.90
21508;DHT22;10915;54.352;9.074;2022-07-29T01:39:56;11.00;99.90
21508;DHT22;10915;54.352;9.074;2022-07-29T01:42:38;10.90;99.90
21508;DHT22;10915;54.352;9.074;2022-07-29T01:50:21;10.70;99.90
21508;DHT22;10915;54.352;9.074;2022-07-29T01:52:58;10.70;99.90
21508;DHT22;10915;54.352;9.074;2022-07-29T01:55:31;10.60;99.90
21508;DHT22;10915;54.352;9.074;2022-07-29T01:57:59;10.60;99.90
21508;DHT22;10915;54.352;9.074;2022-07-29T02:00:26;10.60;99.90
21508;DHT22;10915;54.352;9.074;2022-07-29T02:02:53;10.60;99.90
21508;DHT22;10915;54.352;9.074;2022-07-29T02:05:21;10.60;99.90
21508;DHT22;10915;54.352;9.074;2022-07-29T02:07:49;10.60;99.90
21508;DHT22;10915;54.352;9.074;2022-07-29T02:10:19;10.70;99.90
21508;DHT22;10915;54.352;9.074;2022-07-29T02:12:46;10.70;99.90
21508;DHT22;10915;54.352;9.074;2022-07-29T02:15:14;10.80;99.90
21508;DHT22;10915;54.352;9.074;2022-07-29T02:17:45;10.80;99.90
21508;DHT22;10915;54.352;9.074;2022-07-29T02:20:12;10.80;99.90
21508;DHT22;10915;54.352;9.074;2022-07-29T02:22:39;10.80;99.90
21508;DHT22;10915;54.352;9.074;2022-07-29T02:25:10;10.80;99.90
21508;DHT22;10915;54.352;9.074;2022-07-29T02:30:13;10.80;99.90
21508;DHT22;10915;54.352;9.074;2022-07-29T02:32:40;10.80;99.90
21508;DHT22;10915;54.352;9.074;2022-07-29T02:35:08;10.80;99.90
21508;DHT22;10915;54.352;9.074;2022-07-29T02:37:36;10.80;99.90
21508;DHT22;10915;54.352;9.074;2022-07-29T02:40:02;10.90;99.90
21508;DHT22;10915;54.352;9.074;2022-07-29T02:42:29;10.90;99.90
21508;DHT22;10915;54.352;9.074;2022-07-29T02:44:56;10.90;99.90
21508;DHT22;10915;54.352;9.074;2022-07-29T02:47:27;10.80;99.90
21508;DHT22;10915;54.352;9.074;2022-07-29T02:52:52;10.80;99.90
21508;DHT22;10915;54.352;9.074;2022-07-29T02:55:46;10.90;99.90
21508;DHT22;10915;54.352;9.074;2022-07-29T02:58:29;10.90;99.90
21508;DHT22;10915;54.352;9.074;2022-07-29T03:01:42;10.80;99.90
21508;DHT22;10915;54.352;9.074;2022-07-29T03:03:45;10.80;99.90
21508;DHT22;10915;54.352;9.074;2022-07-29T03:06:13;10.80;99.90
21508;DHT22;10915;54.352;9.074;2022-07-29T03:08:40;10.80;99.90
21508;DHT22;10915;54.352;9.074;2022-07-29T03:11:08;10.70;99.90
21508;DHT22;10915;54.352;9.074;2022-07-29T03:13:35;10.70;99.90
21508;DHT22;10915;54.352;9.074;2022-07-29T03:16:01;10.60;99.90
21508;DHT22;10915;54.352;9.074;2022-07-29T03:18:28;10.50;99.90
21508;DHT22;10915;54.352;9.074;2022-07-29T03:20:54;10.40;99.90
21508;DHT22;10915;54.352;9.074;2022-07-29T03:23:21;10.30;99.90
21508;DHT22;10915;54.352;9.074;2022-07-29T03:25:51;10.30;99.90
21508;DHT22;10915;54.352;9.074;2022-07-29T03:28:17;10.20;99.90
21508;DHT22;10915;54.352;9.074;2022-07-29T03:30:43;10.20;99.90
21508;DHT22;10915;54.352;9.074;2022-07-29T03:33:09;10.20;99.90
21508;DHT22;10915;54.352;9.074;2022-07-29T03:35:35;10.20;99.90
21508;DHT22;10915;54.352;9.074;2022-07-29T03:38:00;10.20;99.90
21508;DHT22;10915;54.352;9.074;2022-07-29T03:40:33;10.20;99.90
21508;DHT22;10915;54.352;9.074;2022-07-29T03:43:00;10.20;99.90
21508;DHT22;10915;54.352;9.074;2022-07-29T03:45:29;10.20;99.90
21508;DHT22;10915;54.352;9.074;2022-07-29T03:47:59;10.30;99.90
21508;DHT22;10915;54.352;9.074;2022-07-29T03:50:26;10.30;99.90
21508;DHT22;10915;54.352;9.074;2022-07-29T03:52:52;10.30;99.90
21508;DHT22;10915;54.352;9.074;2022-07-29T03:55:18;10.30;99.90
21508;DHT22;10915;54.352;9.074;2022-07-29T03:57:45;10.30;99.90
21508;DHT22;10915;54.352;9.074;2022-07-29T04:00:12;10.40;99.90
21508;DHT22;10915;54.352;9.074;2022-07-29T04:02:38;10.40;99.90
21508;DHT22;10915;54.352;9.074;2022-07-29T04:05:04;10.40;99.90
21508;DHT22;10915;54.352;9.074;2022-07-29T04:07:30;10.50;99.90
21508;DHT22;10915;54.352;9.074;2022-07-29T04:09:56;10.50;99.90
21508;DHT22;10915;54.352;9.074;2022-07-29T04:12:21;10.50;99.90
21508;DHT22;10915;54.352;9.074;2022-07-29T04:14:47;10.60;99.90
21508;DHT22;10915;54.352;9.074;2022-07-29T04:17:14;10.70;99.90
21508;DHT22;10915;54.352;9.074;2022-07-29T04:19:39;10.80;99.90
21508;DHT22;10915;54.352;9.074;2022-07-29T04:22:05;10.90;99.90
21508;DHT22;10915;54.352;9.074;2022-07-29T04:24:30;10.90;99.90
21508;DHT22;10915;54.352;9.074;2022-07-29T04:26:56;10.90;99.90
21508;DHT22;10915;54.352;9.074;2022-07-29T04:29:22;10.80;99.90
21508;DHT22;10915;54.352;9.074;2022-07-29T04:31:47;10.70;99.90
21508;DHT22;10915;54.352;9.074;2022-07-29T04:34:13;10.70;99.90
21508;DHT22;10915;54.352;9.074;2022-07-29T04:36:39;10.70;99.90
21508;DHT22;10915;54.352;9.074;2022-07-29T04:39:04;10.70;99.90
21508;DHT22;10915;54.352;9.074;2022-07-29T04:41:30;10.70;99.90
21508;DHT22;10915;54.352;9.074;2022-07-29T04:43:56;10.70;99.90
21508;DHT22;10915;54.352;9.074;2022-07-29T04:46:22;10.70;99.90
21508;DHT22;10915;54.352;9.074;2022-07-29T04:48:47;10.70;99.90
21508;DHT22;10915;54.352;9.074;2022-07-29T04:51:14;10.70;99.90
21508;DHT22;10915;54.352;9.074;2022-07-29T04:53:40;10.70;99.90
21508;DHT22;10915;54.352;9.074;2022-07-29T04:56:06;10.70;99.90
21508;DHT22;10915;54.352;9.074;2022-07-29T04:58:34;10.80;99.90
21508;DHT22;10915;54.352;9.074;2022-07-29T05:01:00;10.80;99.90
21508;DHT22;10915;54.352;9.074;2022-07-29T05:03:26;10.90;99.90
21508;DHT22;10915;54.352;9.074;2022-07-29T05:05:51;10.90;99.90
21508;DHT22;10915;54.352;9.074;2022-07-29T05:08:17;11.00;99.90
21508;DHT22;10915;54.352;9.074;2022-07-29T05:10:43;11.10;99.90
21508;DHT22;10915;54.352;9.074;2022-07-29T05:13:08;11.10;99.90
21508;DHT22;10915;54.352;9.074;2022-07-29T05:15:35;11.20;99.90
21508;DHT22;10915;54.352;9.074;2022-07-29T05:18:01;11.30;99.90
21508;DHT22;10915;54.352;9.074;2022-07-29T05:20:27;11.50;99.90
21508;DHT22;10915;54.352;9.074;2022-07-29T05:22:58;11.60;99.90
21508;DHT22;10915;54.352;9.074;2022-07-29T05:25:25;11.80;99.90
21508;DHT22;10915;54.352;9.074;2022-07-29T05:27:52;11.90;99.90
21508;DHT22;10915;54.352;9.074;2022-07-29T05:30:18;12.10;99.90
21508;DHT22;10915;54.352;9.074;2022-07-29T05:32:44;12.20;99.90
21508;DHT22;10915;54.352;9.074;2022-07-29T05:35:10;12.40;99.90
21508;DHT22;10915;54.352;9.074;2022-07-29T05:37:35;12.60;99.90
21508;DHT22;10915;54.352;9.074;2022-07-29T05:40:02;12.80;99.90
21508;DHT22;10915;54.352;9.074;2022-07-29T05:42:28;12.90;99.90
21508;DHT22;10915;54.352;9.074;2022-07-29T05:44:55;13.00;99.90
21508;DHT22;10915;54.352;9.074;2022-07-29T05:47:21;13.10;99.90
21508;DHT22;10915;54.352;9.074;2022-07-29T05:49:46;13.20;99.90
21508;DHT22;10915;54.352;9.074;2022-07-29T05:52:12;13.30;99.90
21508;DHT22;10915;54.352;9.074;2022-07-29T05:54:39;13.30;99.90
21508;DHT22;10915;54.352;9.074;2022-07-29T05:57:05;13.40;99.90
21508;DHT22;10915;54.352;9.074;2022-07-29T05:59:35;13.50;99.90
21508;DHT22;10915;54.352;9.074;2022-07-29T06:02:00;13.60;99.90
21508;DHT22;10915;54.352;9.074;2022-07-29T06:04:26;13.70;99.90
21508;DHT22;10915;54.352;9.074;2022-07-29T06:06:52;13.80;99.90
21508;DHT22;10915;54.352;9.074;2022-07-29T06:09:18;13.90;99.90
21508;DHT22;10915;54.352;9.074;2022-07-29T06:11:43;14.00;99.90
21508;DHT22;10915;54.352;9.074;2022-07-29T06:14:09;14.10;99.90
21508;DHT22;10915;54.352;9.074;2022-07-29T06:16:35;14.10;99.90
21508;DHT22;10915;54.352;9.074;2022-07-29T06:19:00;14.30;99.90
21508;DHT22;10915;54.352;9.074;2022-07-29T06:21:26;14.40;99.90
21508;DHT22;10915;54.352;9.074;2022-07-29T06:23:52;14.50;99.90
21508;DHT22;10915;54.352;9.074;2022-07-29T06:26:17;14.50;99.90
21508;DHT22;10915;54.352;9.074;2022-07-29T06:28:43;14.60;99.90
21508;DHT22;10915;54.352;9.074;2022-07-29T06:31:09;14.70;99.90
21508;DHT22;10915;54.352;9.074;2022-07-29T06:33:34;14.80;99.90
21508;DHT22;10915;54.352;9.074;2022-07-29T06:36:00;14.90;99.90
21508;DHT22;10915;54.352;9.074;2022-07-29T06:38:26;15.00;99.90
21508;DHT22;10915;54.352;9.074;2022-07-29T06:40:51;15.10;99.90
21508;DHT22;10915;54.352;9.074;2022-07-29T06:43:35;15.10;99.90
21508;DHT22;10915;54.352;9.074;2022-07-29T06:46:07;15.20;99.90
21508;DHT22;10915;54.352;9.074;2022-07-29T06:48:34;15.30;99.90
21508;DHT22;10915;54.352;9.074;2022-07-29T06:51:00;15.30;99.90
21508;DHT22;10915;54.352;9.074;2022-07-29T06:53:27;15.40;99.90
21508;DHT22;10915;54.352;9.074;2022-07-29T06:55:52;15.40;99.90
21508;DHT22;10915;54.352;9.074;2022-07-29T06:58:18;15.50;99.90
21508;DHT22;10915;54.352;9.074;2022-07-29T07:00:46;15.60;99.90
21508;DHT22;10915;54.352;9.074;2022-07-29T07:03:13;15.70;99.90
21508;DHT22;10915;54.352;9.074;2022-07-29T07:05:38;15.80;99.90
21508;DHT22;10915;54.352;9.074;2022-07-29T07:08:04;15.90;99.90
21508;DHT22;10915;54.352;9.074;2022-07-29T07:10:30;15.90;99.90
21508;DHT22;10915;54.352;9.074;2022-07-29T07:12:56;16.00;99.90
21508;DHT22;10915;54.352;9.074;2022-07-29T07:15:21;16.00;99.90
21508;DHT22;10915;54.352;9.074;2022-07-29T07:17:48;16.00;99.90
21508;DHT22;10915;54.352;9.074;2022-07-29T07:20:15;16.10;99.90
21508;DHT22;10915;54.352;9.074;2022-07-29T07:22:41;16.20;99.90
21508;DHT22;10915;54.352;9.074;2022-07-29T07:25:07;16.30;99.90
21508;DHT22;10915;54.352;9.074;2022-07-29T07:27:32;16.40;99.90
21508;DHT22;10915;54.352;9.074;2022-07-29T07:29:58;16.50;99.90
21508;DHT22;10915;54.352;9.074;2022-07-29T07:32:24;16.60;99.90
21508;DHT22;10915;54.352;9.074;2022-07-29T07:34:49;16.70;99.90
21508;DHT22;10915;54.352;9.074;2022-07-29T07:37:15;16.90;99.90
21508;DHT22;10915;54.352;9.074;2022-07-29T07:39:41;17.00;99.90
21508;DHT22;10915;54.352;9.074;2022-07-29T07:42:07;17.20;99.90
21508;DHT22;10915;54.352;9.074;2022-07-29T07:44:32;17.30;99.90
21508;DHT22;10915;54.352;9.074;2022-07-29T07:46:58;17.40;99.90
21508;DHT22;10915;54.352;9.074;2022-07-29T07:49:24;17.60;99.90
21508;DHT22;10915;54.352;9.074;2022-07-29T07:51:49;17.80;99.90
21508;DHT22;10915;54.352;9.074;2022-07-29T07:54:15;17.90;99.90
21508;DHT22;10915;54.352;9.074;2022-07-29T07:56:40;18.10;99.90
21508;DHT22;10915;54.352;9.074;2022-07-29T07:59:06;18.20;99.90
21508;DHT22;10915;54.352;9.074;2022-07-29T08:01:32;18.30;99.90
21508;DHT22;10915;54.352;9.074;2022-07-29T08:03:57;18.50;99.90
21508;DHT22;10915;54.352;9.074;2022-07-29T08:06:23;18.70;99.90
21508;DHT22;10915;54.352;9.074;2022-07-29T08:08:50;18.90;99.90
21508;DHT22;10915;54.352;9.074;2022-07-29T08:11:16;19.10;99.90
21508;DHT22;10915;54.352;9.074;2022-07-29T08:13:42;19.30;99.90
21508;DHT22;10915;54.352;9.074;2022-07-29T08:16:08;19.30;99.90
21508;DHT22;10915;54.352;9.074;2022-07-29T08:18:38;19.50;99.90
21508;DHT22;10915;54.352;9.074;2022-07-29T08:21:05;19.60;99.90
21508;DHT22;10915;54.352;9.074;2022-07-29T08:23:31;19.70;99.90
21508;DHT22;10915;54.352;9.074;2022-07-29T08:26:04;19.70;99.90
21508;DHT22;10915;54.352;9.074;2022-07-29T08:31:01;19.90;99.90
21508;DHT22;10915;54.352;9.074;2022-07-29T08:33:26;20.00;99.90
21508;DHT22;10915;54.352;9.074;2022-07-29T08:35:52;19.90;99.90
21508;DHT22;10915;54.352;9.074;2022-07-29T08:38:17;20.00;99.90
21508;DHT22;10915;54.352;9.074;2022-07-29T08:40:43;20.20;99.90
21508;DHT22;10915;54.352;9.074;2022-07-29T08:43:09;20.40;99.90
21508;DHT22;10915;54.352;9.074;2022-07-29T08:45:46;20.50;99.90
21508;DHT22;10915;54.352;9.074;2022-07-29T08:48:13;20.60;99.90
21508;DHT22;10915;54.352;9.074;2022-07-29T08:50:40;20.70;99.90
21508;DHT22;10915;54.352;9.074;2022-07-29T08:53:12;20.60;99.90
21508;DHT22;10915;54.352;9.074;2022-07-29T08:55:46;20.60;99.90
21508;DHT22;10915;54.352;9.074;2022-07-29T08:58:13;20.70;99.90
21508;DHT22;10915;54.352;9.074;2022-07-29T09:00:45;20.80;99.90
21508;DHT22;10915;54.352;9.074;2022-07-29T09:03:15;20.80;99.90
21508;DHT22;10915;54.352;9.074;2022-07-29T09:05:48;21.00;99.90
21508;DHT22;10915;54.352;9.074;2022-07-29T09:08:15;21.00;99.90
21508;DHT22;10915;54.352;9.074;2022-07-29T09:10:41;20.80;99.90
21508;DHT22;10915;54.352;9.074;2022-07-29T09:13:07;20.50;99.90
21508;DHT22;10915;54.352;9.074;2022-07-29T09:15:32;20.60;99.90
21508;DHT22;10915;54.352;9.074;2022-07-29T09:17:58;20.60;99.90
21508;DHT22;10915;54.352;9.074;2022-07-29T09:20:25;20.80;99.90
21508;DHT22;10915;54.352;9.074;2022-07-29T09:22:52;21.00;99.90
21508;DHT22;10915;54.352;9.074;2022-07-29T09:25:34;21.20;99.90
21508;DHT22;10915;54.352;9.074;2022-07-29T09:33:17;21.30;99.90
21508;DHT22;10915;54.352;9.074;2022-07-29T09:35:43;21.70;99.90
21508;DHT22;10915;54.352;9.074;2022-07-29T09:38:13;21.90;99.90
21508;DHT22;10915;54.352;9.074;2022-07-29T09:40:39;22.00;99.90
21508;DHT22;10915;54.352;9.074;2022-07-29T09:43:12;22.20;99.90
21508;DHT22;10915;54.352;9.074;2022-07-29T09:45:38;22.20;99.90
21508;DHT22;10915;54.352;9.074;2022-07-29T09:48:18;22.40;99.90
21508;DHT22;10915;54.352;9.074;2022-07-29T09:50:45;22.70;99.90
21508;DHT22;10915;54.352;9.074;2022-07-29T09:55:54;22.90;99.90
21508;DHT22;10915;54.352;9.074;2022-07-29T09:58:21;23.00;99.90
21508;DHT22;10915;54.352;9.074;2022-07-29T10:00:49;23.00;99.90
21508;DHT22;10915;54.352;9.074;2022-07-29T10:03:15;23.00;99.90
21508;DHT22;10915;54.352;9.074;2022-07-29T10:05:42;23.10;99.90
21508;DHT22;10915;54.352;9.074;2022-07-29T10:08:09;23.20;99.90
21508;DHT22;10915;54.352;9.074;2022-07-29T10:10:38;23.10;99.90
21508;DHT22;10915;54.352;9.074;2022-07-29T10:13:07;23.20;99.90
21508;DHT22;10915;54.352;9.074;2022-07-29T10:15:36;23.10;99.90
21508;DHT22;10915;54.352;9.074;2022-07-29T10:18:07;22.90;99.90
21508;DHT22;10915;54.352;9.074;2022-07-29T10:20:33;22.90;99.90
21508;DHT22;10915;54.352;9.074;2022-07-29T10:22:59;23.00;99.90
21508;DHT22;10915;54.352;9.074;2022-07-29T10:25:26;22.80;99.90
21508;DHT22;10915;54.352;9.074;2022-07-29T10:27:52;22.80;99.90
21508;DHT22;10915;54.352;9.074;2022-07-29T10:30:19;22.70;99.90
21508;DHT22;10915;54.352;9.074;2022-07-29T10:35:57;23.10;99.90
21508;DHT22;10915;54.352;9.074;2022-07-29T10:38:45;23.20;99.90
21508;DHT22;10915;54.352;9.074;2022-07-29T10:41:32;23.60;99.90
21508;DHT22;10915;54.352;9.074;2022-07-29T10:44:08;23.70;99.90
21508;DHT22;10915;54.352;9.074;2022-07-29T10:46:38;23.40;99.90
21508;DHT22;10915;54.352;9.074;2022-07-29T10:52:07;23.30;99.90
21508;DHT22;10915;54.352;9.074;2022-07-29T10:54:43;23.20;99.90
21508;DHT22;10915;54.352;9.074;2022-07-29T10:57:24;23.30;99.90
21508;DHT22;10915;54.352;9.074;2022-07-29T11:05:09;23.00;99.90
21508;DHT22;10915;54.352;9.074;2022-07-29T11:07:37;23.10;99.90
21508;DHT22;10915;54.352;9.074;2022-07-29T11:15:11;23.10;99.90
21508;DHT22;10915;54.352;9.074;2022-07-29T11:20:48;23.20;99.90
21508;DHT22;10915;54.352;9.074;2022-07-29T11:29:01;23.40;99.90
21508;DHT22;10915;54.352;9.074;2022-07-29T11:31:39;22.90;99.90
21508;DHT22;10915;54.352;9.074;2022-07-29T11:34:26;22.80;99.90
21508;DHT22;10915;54.352;9.074;2022-07-29T11:45:09;22.90;99.90
21508;DHT22;10915;54.352;9.074;2022-07-29T11:47:40;23.10;99.90
21508;DHT22;10915;54.352;9.074;2022-07-29T11:50:11;23.10;99.90
21508;DHT22;10915;54.352;9.074;2022-07-29T11:52:39;23.10;99.90
21508;DHT22;10915;54.352;9.074;2022-07-29T11:55:10;22.80;99.90
21508;DHT22;10915;54.352;9.074;2022-07-29T11:57:55;22.40;99.90
21508;DHT22;10915;54.352;9.074;2022-07-29T12:00:30;22.50;99.90
21508;DHT22;10915;54.352;9.074;2022-07-29T12:02:57;22.40;99.90
21508;DHT22;10915;54.352;9.074;2022-07-29T12:05:32;22.30;99.90
21508;DHT22;10915;54.352;9.074;2022-07-29T12:08:25;22.30;99.90
21508;DHT22;10915;54.352;9.074;2022-07-29T12:10:52;22.10;99.90
21508;DHT22;10915;54.352;9.074;2022-07-29T12:13:21;22.00;99.90
21508;DHT22;10915;54.352;9.074;2022-07-29T12:15:55;21.90;99.90
21508;DHT22;10915;54.352;9.074;2022-07-29T12:18:22;21.90;99.90
21508;DHT22;10915;54.352;9.074;2022-07-29T12:20:48;21.80;99.90
21508;DHT22;10915;54.352;9.074;2022-07-29T12:23:15;21.60;99.90
21508;DHT22;10915;54.352;9.074;2022-07-29T12:25:43;21.60;99.90
21508;DHT22;10915;54.352;9.074;2022-07-29T12:28:12;21.60;99.90
21508;DHT22;10915;54.352;9.074;2022-07-29T12:35:36;21.80;99.90
21508;DHT22;10915;54.352;9.074;2022-07-29T12:38:02;21.80;99.90
21508;DHT22;10915;54.352;9.074;2022-07-29T12:40:28;21.70;99.90
21508;DHT22;10915;54.352;9.074;2022-07-29T12:45:33;21.80;99.90
21508;DHT22;10915;54.352;9.074;2022-07-29T12:47:59;21.80;99.90
21508;DHT22;10915;54.352;9.074;2022-07-29T12:50:24;21.90;99.90
21508;DHT22;10915;54.352;9.074;2022-07-29T12:52:50;21.90;99.90
21508;DHT22;10915;54.352;9.074;2022-07-29T12:55:37;22.00;99.90
21508;DHT22;10915;54.352;9.074;2022-07-29T12:58:02;22.10;99.90
21508;DHT22;10915;54.352;9.074;2022-07-29T13:00:27;22.40;99.90
21508;DHT22;10915;54.352;9.074;2022-07-29T13:02:58;22.60;99.90
21508;DHT22;10915;54.352;9.074;2022-07-29T13:05:40;22.80;99.90
21508;DHT22;10915;54.352;9.074;2022-07-29T13:08:15;22.90;99.90
21508;DHT22;10915;54.352;9.074;2022-07-29T13:10:41;22.90;99.90
21508;DHT22;10915;54.352;9.074;2022-07-29T13:13:09;22.80;99.90
21508;DHT22;10915;54.352;9.074;2022-07-29T13:15:41;23.10;99.90
21508;DHT22;10915;54.352;9.074;2022-07-29T13:18:33;23.10;99.90
21508;DHT22;10915;54.352;9.074;2022-07-29T13:21:15;23.40;99.90
21508;DHT22;10915;54.352;9.074;2022-07-29T13:23:41;23.40;99.90
21508;DHT22;10915;54.352;9.074;2022-07-29T13:26:10;23.40;99.90
21508;DHT22;10915;54.352;9.074;2022-07-29T13:28:41;23.40;99.90
21508;DHT22;10915;54.352;9.074;2022-07-29T13:31:07;23.40;99.90
21508;DHT22;10915;54.352;9.074;2022-07-29T13:33:33;23.40;99.90
21508;DHT22;10915;54.352;9.074;2022-07-29T13:35:58;23.40;99.90
21508;DHT22;10915;54.352;9.074;2022-07-29T13:38:24;23.20;99.90
21508;DHT22;10915;54.352;9.074;2022-07-29T13:40:49;23.10;99.90
21508;DHT22;10915;54.352;9.074;2022-07-29T13:43:15;22.90;99.90
21508;DHT22;10915;54.352;9.074;2022-07-29T13:45:40;22.90;99.90
21508;DHT22;10915;54.352;9.074;2022-07-29T13:48:06;22.80;99.90
21508;DHT22;10915;54.352;9.074;2022-07-29T13:50:32;22.90;99.90
21508;DHT22;10915;54.352;9.074;2022-07-29T13:52:58;23.00;99.90
21508;DHT22;10915;54.352;9.074;2022-07-29T13:55:24;23.10;99.90
21508;DHT22;10915;54.352;9.074;2022-07-29T13:57:49;23.30;99.90
21508;DHT22;10915;54.352;9.074;2022-07-29T14:00:15;23.50;99.90
21508;DHT22;10915;54.352;9.074;2022-07-29T14:02:41;23.50;99.90
21508;DHT22;10915;54.352;9.074;2022-07-29T14:05:08;23.40;99.90
21508;DHT22;10915;54.352;9.074;2022-07-29T14:07:36;23.50;99.90
21508;DHT22;10915;54.352;9.074;2022-07-29T14:10:02;23.80;99.90
21508;DHT22;10915;54.352;9.074;2022-07-29T14:12:29;23.90;99.90
21508;DHT22;10915;54.352;9.074;2022-07-29T14:14:54;23.80;99.90
21508;DHT22;10915;54.352;9.074;2022-07-29T14:17:20;23.70;99.90
21508;DHT22;10915;54.352;9.074;2022-07-29T14:19:46;23.60;99.90
21508;DHT22;10915;54.352;9.074;2022-07-29T14:22:11;23.60;99.90
21508;DHT22;10915;54.352;9.074;2022-07-29T14:24:37;23.50;99.90
21508;DHT22;10915;54.352;9.074;2022-07-29T14:27:07;23.40;99.90
21508;DHT22;10915;54.352;9.074;2022-07-29T14:32:09;23.30;99.90
21508;DHT22;10915;54.352;9.074;2022-07-29T14:34:39;23.30;99.90
21508;DHT22;10915;54.352;9.074;2022-07-29T14:37:05;23.10;99.90
21508;DHT22;10915;54.352;9.074;2022-07-29T14:39:31;22.90;99.90
21508;DHT22;10915;54.352;9.074;2022-07-29T14:41:57;22.80;99.90
21508;DHT22;10915;54.352;9.074;2022-07-29T14:44:23;22.80;99.90
21508;DHT22;10915;54.352;9.074;2022-07-29T14:46:49;22.80;99.90
21508;DHT22;10915;54.352;9.074;2022-07-29T14:49:15;22.60;99.90
21508;DHT22;10915;54.352;9.074;2022-07-29T14:51:40;22.60;99.90
21508;DHT22;10915;54.352;9.074;2022-07-29T14:54:07;22.70;99.90
21508;DHT22;10915;54.352;9.074;2022-07-29T14:56:32;22.70;99.90
21508;DHT22;10915;54.352;9.074;2022-07-29T14:58:58;22.70;99.90
21508;DHT22;10915;54.352;9.074;2022-07-29T15:01:24;22.60;99.90
21508;DHT22;10915;54.352;9.074;2022-07-29T15:03:50;22.50;99.90
21508;DHT22;10915;54.352;9.074;2022-07-29T15:06:16;22.50;99.90
21508;DHT22;10915;54.352;9.074;2022-07-29T15:08:42;22.50;99.90
21508;DHT22;10915;54.352;9.074;2022-07-29T15:11:07;22.40;99.90
21508;DHT22;10915;54.352;9.074;2022-07-29T15:13:34;22.50;99.90
21508;DHT22;10915;54.352;9.074;2022-07-29T15:15:59;22.60;99.90
21508;DHT22;10915;54.352;9.074;2022-07-29T15:18:25;22.60;99.90
21508;DHT22;10915;54.352;9.074;2022-07-29T15:20:51;22.60;99.90
21508;DHT22;10915;54.352;9.074;2022-07-29T15:23:16;22.80;99.90
21508;DHT22;10915;54.352;9.074;2022-07-29T15:25:42;23.00;99.90
21508;DHT22;10915;54.352;9.074;2022-07-29T15:28:08;23.20;99.90
21508;DHT22;10915;54.352;9.074;2022-07-29T15:30:34;23.30;99.90
21508;DHT22;10915;54.352;9.074;2022-07-29T15:33:05;23.00;99.90
21508;DHT22;10915;54.352;9.074;2022-07-29T15:35:31;22.70;99.90
21508;DHT22;10915;54.352;9.074;2022-07-29T15:37:56;22.50;99.90
21508;DHT22;10915;54.352;9.074;2022-07-29T15:40:22;22.50;99.90
21508;DHT22;10915;54.352;9.074;2022-07-29T15:42:48;22.40;99.90
21508;DHT22;10915;54.352;9.074;2022-07-29T15:45:13;22.30;99.90
21508;DHT22;10915;54.352;9.074;2022-07-29T15:47:39;22.40;99.90
21508;DHT22;10915;54.352;9.074;2022-07-29T15:50:05;22.40;99.90
21508;DHT22;10915;54.352;9.074;2022-07-29T15:52:31;22.40;99.90
21508;DHT22;10915;54.352;9.074;2022-07-29T15:54:57;22.40;99.90
21508;DHT22;10915;54.352;9.074;2022-07-29T15:57:24;22.30;99.90
21508;DHT22;10915;54.352;9.074;2022-07-29T15:59:49;22.20;99.90
21508;DHT22;10915;54.352;9.074;2022-07-29T16:02:16;22.10;99.90
21508;DHT22;10915;54.352;9.074;2022-07-29T16:04:42;22.10;99.90
21508;DHT22;10915;54.352;9.074;2022-07-29T16:07:07;22.00;99.90
21508;DHT22;10915;54.352;9.074;2022-07-29T16:09:33;22.00;99.90
21508;DHT22;10915;54.352;9.074;2022-07-29T16:11:59;22.00;99.90
21508;DHT22;10915;54.352;9.074;2022-07-29T16:14:24;22.00;99.90
21508;DHT22;10915;54.352;9.074;2022-07-29T16:16:50;22.00;99.90
21508;DHT22;10915;54.352;9.074;2022-07-29T16:19:16;21.90;99.90
21508;DHT22;10915;54.352;9.074;2022-07-29T16:21:42;21.90;99.90
21508;DHT22;10915;54.352;9.074;2022-07-29T16:24:08;21.90;99.90
21508;DHT22;10915;54.352;9.074;2022-07-29T16:26:35;22.00;99.90
21508;DHT22;10915;54.352;9.074;2022-07-29T16:29:01;22.00;99.90
21508;DHT22;10915;54.352;9.074;2022-07-29T16:31:26;22.10;99.90
21508;DHT22;10915;54.352;9.074;2022-07-29T16:33:53;22.10;99.90
21508;DHT22;10915;54.352;9.074;2022-07-29T16:36:19;22.10;99.90
21508;DHT22;10915;54.352;9.074;2022-07-29T16:38:45;22.10;99.90
21508;DHT22;10915;54.352;9.074;2022-07-29T16:41:12;22.00;99.90
21508;DHT22;10915;54.352;9.074;2022-07-29T16:43:38;21.90;99.90
21508;DHT22;10915;54.352;9.074;2022-07-29T16:46:06;21.80;99.90
21508;DHT22;10915;54.352;9.074;2022-07-29T16:48:32;21.70;99.90
21508;DHT22;10915;54.352;9.074;2022-07-29T16:50:57;21.60;99.90